Главная страница
METAR-TAF:

METAR-TAF

Аэропорты :

Хамадан, Иран

широта: 34-52-05N, долгота: 048-33-08E, высота над уровнем моря: 1757 м

Текущие метеонаблюдения

Эта сводка был подготовлена 2 часа и 27 минут назад, в 13:00 UTC
Ветер 8 Узел от северно-северо-западный
Температура 6°C
Влажность 56%
Давление 1021 hPa
Видимость 10 км и более
небольшая облачность на высоте 4000 фута

METAR: OIHH 031300Z 33008KT 9999 FEW040 06/M02 Q1021

Время: 18:57 (15:27 UTC)


TAF: отсутствует

Метеонаблюдения и прогнозы для более 4000 аэропортов (сводки METAR и TAF).

Имеющиеся станции представлены на карте желтыми и красными точками.

Чтобы увидеть название станции, наведите на нее мышь.

Затем щелкните, чтобы увидеть метеонаблюдения и метеопрогнозы.

Управление картой: чтобы увеличить масштаб, щелкните зеленые кнопки с черным крестиком; чтобы уменьшить масштаб, щелкните зеленую кнопку с тире; для просмотра соседних карт щелкайте зеленые стрелки.


METAR-TAF: